Time;durP1;ratioP1;P1;durP2;ratioP2;P2;SDS_P1;SDS_P2;PMS_P1;PMS_P2;Temp;Humidity;BMP_temperature;BMP_pressure;BME280_temperature;BME280_humidity;BME280_pressure;Samples;Min_cycle;Max_cycle;Signal;HPM_P1;HPM_P2
2023/03/09 00:00:55;;;;;;;63.27;24.77;;;1.10;99.90;;;;;;5072087;28;20111;-50
2023/03/09 00:03:22;;;;;;;63.20;23.70;;;1.10;99.90;;;;;;5071745;28;20028;-46
2023/03/09 00:05:58;;;;;;;59.00;23.10;;;1.10;99.90;;;;;;5071825;28;20534;-47
2023/03/09 00:08:28;;;;;;;59.50;23.77;;;1.10;99.90;;;;;;5071587;28;20123;-50
2023/03/09 00:10:54;;;;;;;42.15;17.33;;;1.10;99.90;;;;;;5071730;28;20048;-50
2023/03/09 00:13:21;;;;;;;58.90;22.47;;;1.10;99.90;;;;;;5071659;28;20498;-46
2023/03/09 00:15:50;;;;;;;61.90;23.23;;;1.10;99.90;;;;;;5071716;28;20099;-46
2023/03/09 00:18:24;;;;;;;59.63;22.27;;;1.10;99.90;;;;;;5071449;28;20032;-46
2023/03/09 00:20:50;;;;;;;64.07;23.50;;;1.10;99.90;;;;;;5071358;28;20446;-45
2023/03/09 00:23:19;;;;;;;63.77;24.00;;;1.10;99.90;;;;;;5071620;28;20050;-47
2023/03/09 00:25:45;;;;;;;67.53;23.80;;;1.10;99.90;;;;;;5071650;28;20121;-48
2023/03/09 00:28:11;;;;;;;62.87;22.30;;;1.10;99.90;;;;;;5071521;28;20040;-46
2023/03/09 00:30:37;;;;;;;66.90;24.27;;;1.20;99.90;;;;;;5071395;28;20052;-47
2023/03/09 00:33:03;;;;;;;67.50;23.67;;;1.20;99.90;;;;;;5071930;28;20495;-47
2023/03/09 00:35:29;;;;;;;66.37;23.57;;;1.10;99.90;;;;;;5071153;28;20054;-46
2023/03/09 00:37:55;;;;;;;61.83;23.17;;;1.20;99.90;;;;;;5071068;28;20108;-46
2023/03/09 00:40:21;;;;;;;63.50;23.00;;;1.10;99.90;;;;;;5053251;28;20028;-47
2023/03/09 00:42:47;;;;;;;68.27;24.63;;;1.10;99.90;;;;;;5071324;28;20025;-46
2023/03/09 00:45:13;;;;;;;70.00;24.70;;;1.10;99.90;;;;;;5071025;28;20031;-48
2023/03/09 00:47:39;;;;;;;66.10;23.43;;;1.10;99.90;;;;;;5053116;28;20036;-47
2023/03/09 00:50:07;;;;;;;64.97;23.17;;;1.10;99.90;;;;;;5071044;28;20477;-46
2023/03/09 00:52:33;;;;;;;68.93;23.90;;;1.10;99.90;;;;;;5071137;28;20038;-49
2023/03/09 00:54:59;;;;;;;69.07;24.50;;;1.10;99.90;;;;;;5053141;28;20477;-49
2023/03/09 00:57:26;;;;;;;77.97;26.93;;;1.10;99.90;;;;;;5070960;28;20488;-51
2023/03/09 00:59:53;;;;;;;83.67;26.53;;;1.10;99.90;;;;;;5052951;28;20078;-48
2023/03/09 01:02:21;;;;;;;83.57;28.47;;;1.10;99.90;;;;;;5053017;28;20068;-49
2023/03/09 01:04:48;;;;;;;102.43;30.87;;;1.10;99.90;;;;;;5070768;28;20047;-50
2023/03/09 01:07:15;;;;;;;101.03;29.70;;;1.10;99.90;;;;;;5052856;28;20032;-48
2023/03/09 01:09:41;;;;;;;96.60;29.67;;;1.20;99.90;;;;;;5071021;28;20458;-46
2023/03/09 01:12:08;;;;;;;98.73;30.80;;;1.20;99.90;;;;;;5071132;28;20107;-48
2023/03/09 01:14:33;;;;;;;101.50;31.50;;;1.10;99.90;;;;;;5052904;28;20037;-48
2023/03/09 01:16:59;;;;;;;102.10;31.67;;;1.20;99.90;;;;;;5053061;28;20036;-47
2023/03/09 01:19:26;;;;;;;101.23;31.23;;;1.20;99.90;;;;;;5052855;28;20128;-46
2023/03/09 01:21:51;;;;;;;102.47;30.90;;;1.20;99.90;;;;;;5052376;28;20111;-50
2023/03/09 01:24:17;;;;;;;106.07;31.57;;;1.20;99.90;;;;;;5070828;28;20477;-46
2023/03/09 01:26:43;;;;;;;102.90;30.87;;;1.20;99.90;;;;;;5052867;28;20040;-49
2023/03/09 01:29:09;;;;;;;104.30;32.23;;;1.20;99.90;;;;;;5052880;28;20028;-52
2023/03/09 01:31:35;;;;;;;98.73;30.80;;;1.20;99.90;;;;;;5070764;28;20068;-47
2023/03/09 01:34:01;;;;;;;98.47;31.17;;;1.20;99.90;;;;;;5052741;28;20037;-47
2023/03/09 01:36:27;;;;;;;97.93;30.33;;;1.20;99.90;;;;;;5070664;28;20032;-50
2023/03/09 01:38:52;;;;;;;99.20;31.73;;;1.20;99.90;;;;;;5070709;28;20377;-48
2023/03/09 01:41:20;;;;;;;99.33;30.87;;;1.20;99.90;;;;;;5052771;28;20056;-51
2023/03/09 01:43:48;;;;;;;93.67;29.93;;;1.20;99.90;;;;;;5052588;28;20020;-48
2023/03/09 01:46:27;;;;;;;106.50;31.10;;;1.20;99.90;;;;;;5070682;28;20028;-46
2023/03/09 01:49:22;;;;;;;;;;;1.20;99.90;;;;;;5071334;28;20039;-47
2023/03/09 01:52:13;;;;;;;101.83;30.83;;;1.20;99.90;;;;;;5043822;28;19920;-48
2023/03/09 01:54:54;;;;;;;97.63;30.30;;;1.30;99.90;;;;;;5070454;28;20025;-48
2023/03/09 01:57:45;;;;;;;93.10;29.40;;;1.20;99.90;;;;;;5070827;28;20112;-48
2023/03/09 02:00:18;;;;;;;96.17;31.13;;;1.20;99.90;;;;;;5052467;28;20028;-48
2023/03/09 02:03:04;;;;;;;99.33;31.10;;;1.20;99.90;;;;;;5052455;28;20025;-47
2023/03/09 02:05:42;;;;;;;95.10;31.23;;;1.20;99.90;;;;;;5052378;28;20029;-50
2023/03/09 02:08:10;;;;;;;92.70;31.90;;;1.20;99.90;;;;;;5070252;28;20028;-48
2023/03/09 02:10:43;;;;;;;87.82;30.25;;;1.30;99.90;;;;;;5052401;28;20038;-48
2023/03/09 02:13:14;;;;;;;85.10;29.73;;;1.30;99.90;;;;;;5052488;28;20037;-47
2023/03/09 02:15:41;;;;;;;92.47;31.83;;;1.30;99.90;;;;;;5052245;28;20037;-47
2023/03/09 02:18:07;;;;;;;86.27;30.43;;;1.30;99.90;;;;;;5052085;28;20404;-52
2023/03/09 02:20:49;;;;;;;82.57;29.27;;;1.30;99.90;;;;;;5052209;28;20020;-47
2023/03/09 02:23:30;;;;;;;83.30;29.30;;;1.30;99.90;;;;;;5070329;28;20024;-49
2023/03/09 02:26:05;;;;;;;78.90;27.77;;;1.30;99.90;;;;;;5052225;28;20036;-47
2023/03/09 02:28:30;;;;;;;75.03;28.70;;;1.30;99.90;;;;;;5070029;28;20082;-47
2023/03/09 02:30:56;;;;;;;76.23;28.40;;;1.30;99.90;;;;;;5051936;28;20029;-48
2023/03/09 02:33:28;;;;;;;77.47;28.87;;;1.30;99.90;;;;;;5072730;28;20423;-50
2023/03/09 02:35:58;;;;;;;79.40;28.43;;;1.30;99.90;;;;;;5055859;28;20024;-51
2023/03/09 02:38:26;;;;;;;77.13;29.00;;;1.30;99.90;;;;;;5055409;28;20033;-50
2023/03/09 02:40:54;;;;;;;81.03;29.33;;;1.30;99.90;;;;;;5055623;28;20028;-50
2023/03/09 02:43:26;;;;;;;78.83;27.50;;;1.30;99.90;;;;;;5055296;28;20028;-52
2023/03/09 02:45:52;;;;;;;73.60;27.47;;;1.30;99.90;;;;;;5055616;28;20021;-52
2023/03/09 02:48:18;;;;;;;74.17;28.03;;;1.30;99.90;;;;;;5055318;28;20527;-52
2023/03/09 02:50:44;;;;;;;72.60;27.97;;;1.30;99.90;;;;;;5055203;28;20029;-47
2023/03/09 02:53:10;;;;;;;73.10;28.97;;;1.30;99.90;;;;;;5055696;28;20093;-49
2023/03/09 02:55:36;;;;;;;73.03;27.53;;;1.30;99.90;;;;;;5055163;28;20124;-47
2023/03/09 02:58:05;;;;;;;76.07;28.08;;;1.30;99.90;;;;;;5055032;28;20123;-48
2023/03/09 03:00:31;;;;;;;65.07;25.53;;;1.30;99.90;;;;;;5054973;28;20039;-48
2023/03/09 03:02:57;;;;;;;81.13;28.37;;;1.30;99.90;;;;;;5055228;28;20111;-46
2023/03/09 03:05:24;;;;;;;71.77;26.23;;;1.30;99.90;;;;;;5054994;28;20029;-46
2023/03/09 03:07:50;;;;;;;76.53;27.57;;;1.30;99.90;;;;;;5054941;28;20031;-46
2023/03/09 03:10:16;;;;;;;78.37;29.13;;;1.40;99.90;;;;;;5072836;28;20515;-50
2023/03/09 03:12:42;;;;;;;78.40;29.07;;;1.40;99.90;;;;;;5054862;28;20507;-49
2023/03/09 03:15:08;;;;;;;72.93;28.10;;;1.40;99.90;;;;;;5072847;28;20404;-50
2023/03/09 03:17:35;;;;;;;74.87;28.63;;;1.40;99.90;;;;;;5054845;28;20028;-49
2023/03/09 03:20:02;;;;;;;77.63;27.07;;;1.40;99.90;;;;;;5054749;28;20508;-49
2023/03/09 03:22:29;;;;;;;76.83;29.03;;;1.40;99.90;;;;;;5054942;28;20473;-48
2023/03/09 03:24:55;;;;;;;73.80;26.97;;;1.40;99.90;;;;;;5054641;28;20119;-50
2023/03/09 03:27:21;;;;;;;80.40;28.47;;;1.40;99.90;;;;;;5054516;28;20032;-51
2023/03/09 03:29:47;;;;;;;71.53;26.27;;;1.40;99.90;;;;;;5054611;28;20028;-51
2023/03/09 03:32:13;;;;;;;76.00;28.10;;;1.40;99.90;;;;;;5072550;28;20033;-49
2023/03/09 03:34:39;;;;;;;76.97;27.90;;;1.40;99.90;;;;;;5054340;28;20492;-48
2023/03/09 03:37:05;;;;;;;72.90;27.37;;;1.50;99.90;;;;;;5054376;28;20035;-45
2023/03/09 03:39:33;;;;;;;86.13;28.93;;;1.40;99.90;;;;;;5054335;28;20062;-49
2023/03/09 03:42:01;;;;;;;74.83;27.20;;;1.50;99.90;;;;;;5054424;28;20709;-48
2023/03/09 03:44:27;;;;;;;72.57;28.10;;;1.50;99.90;;;;;;5053500;28;20063;-47
2023/03/09 03:46:54;;;;;;;72.80;27.37;;;1.50;99.90;;;;;;5072053;28;20397;-48
2023/03/09 03:49:21;;;;;;;73.37;27.20;;;1.50;99.90;;;;;;5054207;28;20039;-48
2023/03/09 03:51:47;;;;;;;69.33;26.53;;;1.50;99.90;;;;;;5054156;28;20520;-52
2023/03/09 03:54:13;;;;;;;78.10;28.10;;;1.50;99.90;;;;;;5072058;28;20028;-51
2023/03/09 03:56:39;;;;;;;74.17;26.37;;;1.50;99.90;;;;;;5072109;28;20104;-50
2023/03/09 03:59:10;;;;;;;72.17;28.00;;;1.50;99.90;;;;;;5053976;28;20063;-50
2023/03/09 04:01:36;;;;;;;70.47;25.77;;;1.50;99.90;;;;;;5053938;28;20137;-51
2023/03/09 04:04:05;;;;;;;65.88;25.17;;;1.50;99.90;;;;;;5053836;28;20036;-50
2023/03/09 04:06:33;;;;;;;73.97;27.03;;;1.50;99.90;;;;;;5053802;28;20035;-49
2023/03/09 04:09:00;;;;;;;70.63;27.23;;;1.50;99.90;;;;;;5053792;28;20098;-48
2023/03/09 04:11:26;;;;;;;77.90;28.73;;;1.60;99.90;;;;;;5053879;28;20025;-49
2023/03/09 04:13:52;;;;;;;74.03;28.03;;;1.50;99.90;;;;;;5053618;28;20396;-48
2023/03/09 04:16:19;;;;;;;73.80;27.07;;;1.50;99.90;;;;;;5053530;28;20051;-47
2023/03/09 04:18:46;;;;;;;85.43;27.87;;;1.40;99.90;;;;;;5053566;28;20032;-49
2023/03/09 04:21:13;;;;;;;73.37;27.43;;;1.40;99.90;;;;;;5053721;28;20024;-49
2023/03/09 04:23:39;;;;;;;83.37;28.47;;;1.50;99.90;;;;;;5053470;28;20123;-48
2023/03/09 04:26:05;;;;;;;69.20;26.83;;;1.40;99.90;;;;;;5053809;28;20036;-49
2023/03/09 04:28:57;;;;;;;75.70;27.07;;;1.40;99.90;;;;;;5053320;28;20536;-48
2023/03/09 04:31:23;;;;;;;83.93;27.97;;;1.40;99.90;;;;;;5053354;28;20116;-51
2023/03/09 04:33:48;;;;;;;82.07;27.87;;;1.40;99.90;;;;;;5053179;28;20496;-49
2023/03/09 04:36:18;;;;;;;80.15;27.80;;;1.40;99.90;;;;;;5053564;28;20024;-48
2023/03/09 04:38:46;;;;;;;77.27;27.53;;;1.40;99.90;;;;;;5053451;28;20040;-51
2023/03/09 04:41:13;;;;;;;83.30;28.97;;;1.40;99.90;;;;;;5053060;28;20131;-47
2023/03/09 04:43:43;;;;;;;84.70;28.00;;;1.40;99.90;;;;;;5052979;28;20058;-50
2023/03/09 04:46:09;;;;;;;85.53;28.27;;;1.50;99.90;;;;;;5053068;28;20024;-49
2023/03/09 04:48:34;;;;;;;86.40;29.77;;;1.50;99.90;;;;;;5052732;28;20028;-48
2023/03/09 04:51:01;;;;;;;78.20;27.63;;;1.50;99.90;;;;;;5065672;22;20044;-56
2023/03/09 04:53:28;;;;;;;80.17;29.10;;;1.50;99.90;;;;;;5052014;28;20032;-53
2023/03/09 04:55:55;;;;;;;80.93;28.60;;;1.50;99.90;;;;;;5052044;28;20561;-53
2023/03/09 04:58:21;;;;;;;80.63;27.43;;;1.40;99.90;;;;;;5052726;28;20496;-53
2023/03/09 05:00:48;;;;;;;80.43;28.13;;;1.40;99.90;;;;;;5054119;28;20505;-51
2023/03/09 05:03:18;;;;;;;82.95;27.77;;;1.40;99.90;;;;;;5091197;28;20439;-56
2023/03/09 05:05:48;;;;;;;80.90;28.17;;;1.40;99.90;;;;;;5073132;28;20115;-54
2023/03/09 05:08:14;;;;;;;82.47;28.90;;;1.40;99.90;;;;;;5072521;28;20076;-52
2023/03/09 05:10:40;;;;;;;84.80;28.60;;;1.40;99.90;;;;;;5072854;28;20480;-51
2023/03/09 05:13:06;;;;;;;86.20;31.20;;;1.50;99.90;;;;;;5072873;28;20024;-53
2023/03/09 05:15:32;;;;;;;80.43;29.53;;;1.40;99.90;;;;;;5072670;28;20301;-55
2023/03/09 05:17:58;;;;;;;77.50;28.57;;;1.40;99.90;;;;;;5072470;28;20032;-50
2023/03/09 05:20:27;;;;;;;84.00;28.73;;;1.50;99.90;;;;;;5072669;28;20028;-56
2023/03/09 05:23:01;;;;;;;84.47;28.70;;;1.50;99.90;;;;;;5072635;28;20122;-54
2023/03/09 05:25:27;;;;;;;89.63;30.27;;;1.50;99.90;;;;;;5072515;28;20032;-54
2023/03/09 05:27:54;;;;;;;82.03;28.80;;;1.60;99.90;;;;;;5072415;28;20024;-54
2023/03/09 05:30:21;;;;;;;86.83;30.47;;;1.60;99.90;;;;;;5072588;28;20035;-55
2023/03/09 05:32:49;;;;;;;82.83;29.77;;;1.50;99.90;;;;;;5072449;28;20118;-51
2023/03/09 05:35:19;;;;;;;84.60;29.67;;;1.50;99.90;;;;;;5072340;28;20024;-54
2023/03/09 05:37:46;;;;;;;82.97;28.30;;;1.50;99.90;;;;;;5090406;28;20028;-54
2023/03/09 05:40:18;;;;;;;81.67;27.80;;;1.50;99.90;;;;;;5072557;28;20412;-54
2023/03/09 05:42:46;;;;;;;91.97;31.13;;;1.50;99.90;;;;;;5072573;28;20365;-52
2023/03/09 05:45:12;;;;;;;88.00;30.37;;;1.50;99.90;;;;;;5072306;28;20660;-54
2023/03/09 05:47:39;;;;;;;85.63;29.33;;;1.50;99.90;;;;;;5072090;28;20035;-54
2023/03/09 05:50:07;;;;;;;88.20;30.70;;;1.50;99.90;;;;;;5072280;28;20086;-54
2023/03/09 05:52:33;;;;;;;90.73;30.70;;;1.50;99.90;;;;;;5072153;28;20065;-55
2023/03/09 05:54:58;;;;;;;85.23;29.97;;;1.50;99.90;;;;;;5072150;28;20036;-50
2023/03/09 05:57:24;;;;;;;87.53;29.13;;;1.50;99.90;;;;;;5090225;28;20028;-54
2023/03/09 05:59:52;;;;;;;93.53;30.07;;;1.50;99.90;;;;;;5072132;28;20035;-50
2023/03/09 06:02:18;;;;;;;91.00;30.63;;;1.50;99.90;;;;;;5072195;28;20417;-52
2023/03/09 06:04:50;;;;;;;98.53;31.27;;;1.50;99.90;;;;;;5055414;28;20028;-55
2023/03/09 06:07:15;;;;;;;93.60;29.80;;;1.50;99.90;;;;;;5073342;28;20024;-53
2023/03/09 06:09:45;;;;;;;96.35;30.92;;;1.50;99.90;;;;;;5076119;28;20032;-53
2023/03/09 06:12:19;;;;;;;98.03;30.80;;;1.50;99.90;;;;;;5076021;28;20054;-54
2023/03/09 06:14:51;;;;;;;94.67;29.70;;;1.60;99.90;;;;;;5075847;28;20434;-53
2023/03/09 06:17:18;;;;;;;100.43;30.97;;;1.50;99.90;;;;;;5075947;28;20408;-52
2023/03/09 06:19:44;;;;;;;92.47;30.67;;;1.50;99.90;;;;;;5075886;28;20035;-55
2023/03/09 06:22:11;;;;;;;96.87;30.77;;;1.60;99.90;;;;;;5094208;28;20418;-52
2023/03/09 06:24:39;;;;;;;100.13;33.08;;;1.60;99.90;;;;;;5075675;28;20027;-55
2023/03/09 06:27:05;;;;;;;100.50;32.33;;;1.60;99.90;;;;;;5075670;28;20035;-55
2023/03/09 06:29:33;;;;;;;96.35;30.77;;;1.50;99.90;;;;;;5059509;28;20031;-55
2023/03/09 06:32:00;;;;;;;104.17;31.60;;;1.60;99.90;;;;;;5093884;28;20526;-51
2023/03/09 06:34:29;;;;;;;96.87;31.13;;;1.60;99.90;;;;;;5075725;28;20028;-54
2023/03/09 06:36:55;;;;;;;98.17;31.00;;;1.60;99.90;;;;;;5075448;28;20085;-51
2023/03/09 06:39:21;;;;;;;98.53;30.70;;;1.70;99.90;;;;;;5093695;28;20032;-56
2023/03/09 06:41:47;;;;;;;94.33;30.73;;;1.70;99.90;;;;;;5075382;28;20024;-53
2023/03/09 06:44:42;;;;;;;95.53;31.03;;;1.70;99.90;;;;;;5082292;28;20024;-55
2023/03/09 06:47:09;;;;;;;98.93;30.10;;;1.70;99.90;;;;;;5075314;28;20444;-50
2023/03/09 06:49:35;;;;;;;94.47;29.23;;;1.70;99.90;;;;;;5075296;28;20027;-54
2023/03/09 06:52:06;;;;;;;98.03;31.50;;;1.70;99.90;;;;;;5075285;28;20527;-53
2023/03/09 06:54:32;;;;;;;93.73;30.43;;;1.70;99.90;;;;;;5075109;28;20035;-53
2023/03/09 06:57:09;;;;;;;88.67;30.40;;;1.80;99.90;;;;;;5075278;28;20233;-53
2023/03/09 06:59:37;;;;;;;87.60;30.42;;;1.80;99.90;;;;;;5075198;28;20484;-51
2023/03/09 07:02:03;;;;;;;87.70;29.93;;;1.80;99.90;;;;;;5093384;28;20076;-52
2023/03/09 07:04:28;;;;;;;88.60;29.50;;;1.90;99.90;;;;;;5075023;28;20036;-53
2023/03/09 07:06:54;;;;;;;87.30;29.27;;;1.90;99.90;;;;;;5074571;28;20024;-54
2023/03/09 07:09:20;;;;;;;88.87;30.17;;;1.90;99.90;;;;;;5093121;28;20436;-54
2023/03/09 07:11:46;;;;;;;82.83;28.20;;;1.90;99.90;;;;;;5093136;28;20036;-54
2023/03/09 07:14:12;;;;;;;83.70;28.30;;;2.00;99.90;;;;;;5093068;28;20032;-53
2023/03/09 07:16:38;;;;;;;83.03;29.80;;;1.90;99.90;;;;;;5093079;28;20035;-51
2023/03/09 07:19:04;;;;;;;82.00;28.57;;;1.80;99.90;;;;;;5091976;28;20034;-54
2023/03/09 07:21:29;;;;;;;86.33;28.27;;;1.90;99.90;;;;;;5074730;28;20028;-52
2023/03/09 07:23:56;;;;;;;83.10;28.73;;;1.90;99.90;;;;;;5092682;28;20028;-53
2023/03/09 07:26:21;;;;;;;81.63;28.90;;;1.90;99.90;;;;;;5092722;28;20038;-52
2023/03/09 07:28:47;;;;;;;79.90;27.13;;;2.00;99.90;;;;;;5092783;28;20024;-52
2023/03/09 07:31:13;;;;;;;87.30;28.47;;;2.00;99.90;;;;;;5092725;28;20043;-52
2023/03/09 07:33:39;;;;;;;72.47;26.93;;;2.10;99.90;;;;;;5092632;28;20036;-52
2023/03/09 07:36:07;;;;;;;71.53;26.23;;;2.10;99.90;;;;;;5092576;28;20078;-51
2023/03/09 07:38:33;;;;;;;73.93;27.10;;;2.10;99.90;;;;;;5092483;28;20459;-52
2023/03/09 07:41:00;;;;;;;77.87;27.77;;;2.20;99.90;;;;;;5092738;28;20428;-53
2023/03/09 07:43:27;;;;;;;66.27;24.63;;;2.20;99.90;;;;;;5092467;28;20392;-50
2023/03/09 07:46:15;;;;;;;65.10;24.30;;;2.30;99.90;;;;;;5092144;28;20142;-51
2023/03/09 07:48:42;;;;;;;66.30;25.23;;;2.30;99.90;;;;;;5092288;28;20039;-53
2023/03/09 07:51:09;;;;;;;64.53;24.50;;;2.30;99.90;;;;;;5092269;28;20035;-55
2023/03/09 07:53:36;;;;;;;66.87;25.37;;;2.40;99.90;;;;;;5092190;28;20028;-51
2023/03/09 07:56:03;;;;;;;64.23;24.93;;;2.50;99.90;;;;;;5092374;28;20020;-52
2023/03/09 07:58:34;;;;;;;68.03;25.73;;;2.50;99.90;;;;;;5092040;28;20032;-54
2023/03/09 08:01:01;;;;;;;65.70;24.37;;;2.50;99.90;;;;;;5092049;28;20024;-53
2023/03/09 08:03:27;;;;;;;67.80;26.23;;;2.50;99.90;;;;;;5092067;28;20024;-53
2023/03/09 08:05:55;;;;;;;67.33;26.80;;;2.60;99.90;;;;;;5092146;28;20049;-51
2023/03/09 08:08:22;;;;;;;66.77;25.70;;;2.60;99.90;;;;;;5091910;28;20043;-52
2023/03/09 08:10:52;;;;;;;72.53;26.60;;;2.60;99.90;;;;;;5092029;28;20699;-54
2023/03/09 08:13:21;;;;;;;74.17;27.00;;;2.60;99.90;;;;;;5091806;28;20031;-53
2023/03/09 08:15:47;;;;;;;72.80;28.10;;;2.50;99.90;;;;;;5073748;28;20028;-52
2023/03/09 08:18:13;;;;;;;71.30;26.73;;;2.50;99.90;;;;;;5091774;28;20373;-54
2023/03/09 08:20:39;;;;;;;73.23;27.80;;;2.40;99.90;;;;;;5091905;28;20036;-55
2023/03/09 08:23:05;;;;;;;75.07;27.90;;;2.40;99.90;;;;;;5092057;28;20472;-55
2023/03/09 08:25:32;;;;;;;75.97;27.93;;;2.50;99.90;;;;;;5091533;28;20029;-54
2023/03/09 08:27:58;;;;;;;72.50;27.30;;;2.50;99.90;;;;;;5091528;28;20047;-55
2023/03/09 08:30:24;;;;;;;84.73;28.60;;;2.50;99.90;;;;;;5091557;28;20035;-53
2023/03/09 08:32:52;;;;;;;74.40;28.03;;;2.60;99.90;;;;;;5091542;28;20035;-49
2023/03/09 08:35:20;;;;;;;77.67;28.53;;;2.60;99.90;;;;;;5091450;28;20429;-54
2023/03/09 08:37:46;;;;;;;78.73;27.67;;;2.60;99.90;;;;;;5091419;28;20089;-55
2023/03/09 08:40:14;;;;;;;74.03;27.43;;;2.80;99.90;;;;;;5091459;28;20032;-53
2023/03/09 08:42:40;;;;;;;74.83;27.10;;;2.80;99.90;;;;;;5073099;28;20028;-55
2023/03/09 08:45:07;;;;;;;70.50;26.97;;;2.80;99.90;;;;;;5091169;28;20031;-54
2023/03/09 08:47:34;;;;;;;67.37;26.27;;;2.90;99.90;;;;;;5091095;28;20035;-53
2023/03/09 08:49:59;;;;;;;73.97;28.23;;;2.80;99.90;;;;;;5072981;28;20031;-54
2023/03/09 08:52:25;;;;;;;75.47;27.13;;;2.90;99.90;;;;;;5091187;28;20040;-54
2023/03/09 08:54:51;;;;;;;70.47;28.20;;;3.00;99.90;;;;;;5091069;28;20105;-53
2023/03/09 08:57:18;;;;;;;71.07;27.57;;;3.00;99.90;;;;;;5091029;28;20434;-55
2023/03/09 08:59:47;;;;;;;80.30;27.97;;;3.00;99.90;;;;;;5091075;28;20472;-52
2023/03/09 09:02:14;;;;;;;82.95;28.25;;;3.00;99.90;;;;;;5091134;28;20400;-54
2023/03/09 09:04:44;;;;;;;80.23;27.90;;;3.00;99.90;;;;;;5090582;28;20514;-52
2023/03/09 09:07:10;;;;;;;81.03;28.17;;;3.00;99.90;;;;;;5090694;28;20043;-53
2023/03/09 09:09:37;;;;;;;82.00;29.30;;;3.00;99.90;;;;;;5090901;28;20027;-52
2023/03/09 09:12:03;;;;;;;74.27;27.03;;;3.00;99.90;;;;;;5090767;28;20112;-53
2023/03/09 09:14:28;;;;;;;77.73;28.67;;;2.90;99.90;;;;;;5090736;28;20499;-54
2023/03/09 09:16:54;;;;;;;74.47;27.93;;;3.00;99.90;;;;;;5090686;28;20035;-53
2023/03/09 09:19:20;;;;;;;82.10;28.50;;;3.10;99.90;;;;;;5090694;28;20111;-54
2023/03/09 09:21:46;;;;;;;75.77;28.60;;;3.20;99.90;;;;;;5090726;28;20047;-53
2023/03/09 09:24:12;;;;;;;82.50;29.63;;;3.10;99.90;;;;;;5072586;28;20031;-52
2023/03/09 09:26:38;;;;;;;84.87;29.20;;;3.20;99.90;;;;;;5072495;28;20036;-53
2023/03/09 09:29:05;;;;;;;81.53;28.37;;;3.20;99.90;;;;;;5090700;28;20036;-54
2023/03/09 09:31:30;;;;;;;77.40;28.10;;;3.30;99.90;;;;;;5090640;28;20032;-49
2023/03/09 09:34:00;;;;;;;87.97;31.02;;;3.40;99.90;;;;;;5072128;28;20029;-54
2023/03/09 09:36:26;;;;;;;92.50;31.10;;;3.40;99.90;;;;;;5090457;28;20115;-52
2023/03/09 09:38:53;;;;;;;81.30;31.20;;;3.40;99.90;;;;;;5090861;28;20088;-54
2023/03/09 09:41:27;;;;;;;86.87;31.63;;;3.40;99.90;;;;;;5090343;28;20032;-55
2023/03/09 09:44:00;;;;;;;88.50;30.97;;;3.50;99.90;;;;;;5072341;28;20333;-52
2023/03/09 09:46:27;;;;;;;85.20;30.13;;;3.60;99.90;;;;;;5090452;28;20024;-50
2023/03/09 09:48:53;;;;;;;81.33;29.80;;;3.70;99.90;;;;;;5090492;28;20127;-53
2023/03/09 09:52:10;;;;;;;80.40;30.03;;;3.80;99.90;;;;;;5090158;28;20532;-52
2023/03/09 09:54:47;;;;;;;80.27;30.27;;;3.80;99.90;;;;;;5027966;28;20122;-51
2023/03/09 09:57:36;;;;;;;82.80;30.83;;;3.70;99.90;;;;;;5090238;28;20523;-54
2023/03/09 10:00:14;;;;;;;78.00;29.88;;;3.80;99.90;;;;;;5090184;28;20111;-52
2023/03/09 10:02:58;;;;;;;82.00;30.50;;;3.70;99.90;;;;;;5090327;28;20138;-51
2023/03/09 10:05:55;;;;;;;77.90;29.57;;;3.90;99.90;;;;;;5090117;28;20028;-52
2023/03/09 10:08:36;;;;;;;82.27;32.57;;;3.90;99.90;;;;;;5089965;28;20054;-54
2023/03/09 10:11:20;;;;;;;88.27;32.73;;;3.90;99.90;;;;;;5090306;28;20074;-51
2023/03/09 10:13:53;;;;;;;98.83;34.70;;;3.80;99.90;;;;;;5090223;28;20082;-52
2023/03/09 10:16:25;;;;;;;90.40;32.73;;;3.80;99.90;;;;;;5090357;28;20072;-54
2023/03/09 10:18:57;;;;;;;91.57;34.80;;;3.80;99.90;;;;;;5090106;28;20028;-52
2023/03/09 10:21:40;;;;;;;95.40;35.07;;;3.90;99.90;;;;;;5090161;28;20585;-51
2023/03/09 10:24:21;;;;;;;99.17;35.57;;;3.90;99.90;;;;;;5090070;28;20065;-51
2023/03/09 10:26:55;;;;;;;97.27;35.33;;;4.00;99.90;;;;;;5089908;28;20028;-55
2023/03/09 10:29:47;;;;;;;100.70;36.33;;;4.00;99.90;;;;;;5090123;28;20058;-53
2023/03/09 10:32:26;;;;;;;97.80;34.27;;;4.10;99.90;;;;;;5075615;28;20082;-54
2023/03/09 10:34:59;;;;;;;87.50;34.00;;;4.20;99.90;;;;;;5090010;28;20035;-51
2023/03/09 10:37:33;;;;;;;90.90;32.80;;;4.40;99.90;;;;;;5089764;28;20492;-51
2023/03/09 10:40:07;;;;;;;86.90;31.93;;;4.40;99.90;;;;;;5089979;28;20043;-55
2023/03/09 10:42:37;;;;;;;83.43;31.57;;;4.50;99.90;;;;;;5090041;28;20495;-55
2023/03/09 10:45:17;;;;;;;79.77;32.53;;;4.60;99.90;;;;;;5089834;28;20102;-53
2023/03/09 10:47:52;;;;;;;77.20;30.63;;;4.80;99.90;;;;;;5089646;28;20024;-52
2023/03/09 10:50:21;;;;;;;85.73;33.00;;;4.80;99.90;;;;;;5090036;28;20054;-52
2023/03/09 10:52:50;;;;;;;79.03;32.22;;;4.80;99.90;;;;;;5089906;28;20039;-55
2023/03/09 10:55:34;;;;;;;86.37;34.00;;;4.80;99.90;;;;;;5092365;28;20032;-54
2023/03/09 10:58:06;;;;;;;81.17;32.53;;;4.70;99.90;;;;;;5093279;28;20027;-53
2023/03/09 11:00:31;;;;;;;80.87;32.30;;;4.70;99.90;;;;;;5093645;28;20042;-56
2023/03/09 11:03:02;;;;;;;78.87;31.90;;;4.60;99.90;;;;;;5093466;28;20583;-54
2023/03/09 11:05:31;;;;;;;87.90;34.13;;;4.60;99.90;;;;;;5093057;28;20025;-55
2023/03/09 11:07:59;;;;;;;80.97;32.90;;;4.60;99.90;;;;;;5093176;28;20024;-54
2023/03/09 11:10:28;;;;;;;85.67;34.37;;;4.60;99.90;;;;;;5093106;28;20101;-52
2023/03/09 11:12:54;;;;;;;;;;;4.70;99.90;;;;;;5093709;28;20136;-54
2023/03/09 11:15:25;;;;;;;82.40;32.47;;;4.70;99.90;;;;;;5093231;28;19962;-56
2023/03/09 11:17:51;;;;;;;90.83;35.00;;;4.70;99.90;;;;;;5092904;28;20119;-55
2023/03/09 11:20:24;;;;;;;85.60;33.80;;;4.70;99.90;;;;;;5092977;28;20107;-56
2023/03/09 11:23:02;;;;;;;96.10;36.17;;;4.60;99.90;;;;;;5093011;28;20024;-54
2023/03/09 11:25:37;;;;;;;99.03;37.03;;;4.60;99.90;;;;;;5092766;28;20059;-54
2023/03/09 11:28:16;;;;;;;91.10;35.77;;;4.50;99.90;;;;;;5092929;28;20195;-53
2023/03/09 11:30:43;;;;;;;108.43;38.07;;;4.60;99.90;;;;;;5092670;28;20115;-53
2023/03/09 11:33:13;;;;;;;92.27;36.70;;;4.50;99.90;;;;;;5092750;28;20055;-53
2023/03/09 11:35:39;;;;;;;120.97;46.10;;;4.50;99.90;;;;;;5092548;28;20024;-52
2023/03/09 11:38:12;;;;;;;100.43;36.60;;;4.70;99.90;;;;;;5092571;28;20032;-51
2023/03/09 11:40:40;;;;;;;95.23;35.47;;;4.70;99.90;;;;;;5092828;28;20036;-53
2023/03/09 11:43:16;;;;;;;95.03;37.13;;;4.70;99.90;;;;;;5092720;28;20472;-56
2023/03/09 11:45:42;;;;;;;103.73;37.57;;;4.70;99.90;;;;;;5092456;28;20481;-55
2023/03/09 11:48:26;;;;;;;109.97;39.33;;;4.70;99.90;;;;;;5092227;28;20088;-54
2023/03/09 11:51:14;;;;;;;106.37;37.93;;;4.50;99.90;;;;;;5092565;28;20305;-54
2023/03/09 11:54:01;;;;;;;104.87;38.50;;;4.50;99.90;;;;;;5092318;28;20484;-53
2023/03/09 11:56:30;;;;;;;100.07;37.60;;;4.50;99.90;;;;;;5092250;28;20684;-53
2023/03/09 11:59:16;;;;;;;108.30;38.20;;;4.50;99.90;;;;;;5092431;28;20046;-51
2023/03/09 12:01:52;;;;;;;96.80;36.10;;;4.50;99.90;;;;;;5092198;28;20119;-55
2023/03/09 12:04:18;;;;;;;98.33;36.10;;;4.40;99.90;;;;;;5091836;28;20110;-55
2023/03/09 12:06:54;;;;;;;87.53;34.77;;;4.40;99.90;;;;;;5091786;28;20329;-54
2023/03/09 12:09:32;;;;;;;92.97;35.10;;;4.40;99.90;;;;;;5092064;28;20035;-50
2023/03/09 12:12:30;;;;;;;88.33;34.13;;;4.40;99.90;;;;;;5092026;28;20035;-53
2023/03/09 12:15:30;;;;;;;86.17;31.87;;;4.40;99.90;;;;;;5091863;28;20043;-54
2023/03/09 12:17:59;;;;;;;79.87;32.73;;;4.40;99.90;;;;;;5065548;28;20040;-53
2023/03/09 12:20:38;;;;;;;88.90;32.28;;;4.40;99.90;;;;;;5091929;28;20085;-52
2023/03/09 12:23:05;;;;;;;88.60;33.88;;;4.40;99.90;;;;;;5091828;28;20060;-54
2023/03/09 12:25:31;;;;;;;93.47;34.53;;;4.40;99.90;;;;;;5091545;28;20036;-56
2023/03/09 12:28:06;;;;;;;89.07;37.13;;;4.50;99.90;;;;;;5091548;28;20028;-53
2023/03/09 12:30:42;;;;;;;102.43;41.97;;;4.60;99.90;;;;;;5091646;28;20104;-53
2023/03/09 12:33:09;;;;;;;114.13;43.33;;;4.70;99.90;;;;;;5091847;28;20028;-51
2023/03/09 12:35:41;;;;;;;99.73;38.43;;;4.70;99.90;;;;;;5091505;28;20059;-54
2023/03/09 12:38:19;;;;;;;81.13;32.03;;;4.70;99.90;;;;;;5091371;28;20067;-52
2023/03/09 12:40:45;;;;;;;81.03;31.77;;;4.70;99.90;;;;;;5091412;28;20024;-54
2023/03/09 12:43:14;;;;;;;89.63;35.97;;;4.80;99.90;;;;;;5091629;28;20403;-53
2023/03/09 12:45:44;;;;;;;95.60;39.50;;;4.80;99.90;;;;;;5091269;28;20059;-52
2023/03/09 12:48:13;;;;;;;73.93;31.23;;;5.00;99.90;;;;;;5091195;28;20024;-53